ADDS METAR Data INFO
IDs: Format: Raw Decoded Include TAF

Data at: 1919 UTC 23 Apr 2018

KGON 231856Z 17009KT 10SM CLR 11/03 A3046 RMK AO2 SLP315 T01110033
KGON 231756Z 16009KT 10SM CLR 13/M03 A3047 RMK AO2 SLP318 T01331028 10150 20089 56004
KGON 231656Z 15011KT 10SM CLR 13/M01 A3047 RMK AO2 SLP318 T01281006
KGON 231556Z 13011KT 10SM CLR 14/M03 A3047 RMK AO2 SLP318 T01441028
KGON 231456Z 14009KT 10SM CLR 14/M02 A3048 RMK AO2 SLP322 T01391017 58001
KGON 231356Z 00000KT 10SM CLR 14/M06 A3049 RMK AO2 SLP324 T01391056
KGON 231256Z 06007KT 10SM CLR 13/M04 A3049 RMK AO2 SLP323 T01281044
KGON 231156Z 01006KT 10SM CLR 09/M04 A3049 RMK AO2 SLP323 T00891039 10089 20000 53015
KGON 231056Z 36007KT 10SM CLR 05/M04 A3047 RMK AO2 SLP318 T00501039
KGON 230956Z AUTO 01005KT 10SM CLR 02/M03 A3045 RMK AO2 SLP311 T00171028
KGON 230856Z AUTO 01004KT 10SM CLR 01/M01 A3044 RMK AO2 SLP307 T00061006 53012
KGON 230756Z AUTO 02003KT 10SM CLR 02/00 A3043 RMK AO2 SLP303 T00220000
KGON 230656Z AUTO 36004KT 10SM CLR 02/M01 A3041 RMK AO2 SLP298 T00171011
KGON 230556Z AUTO 00000KT 10SM CLR 03/M01 A3040 RMK AO2 SLP295 T00281011 10100 20022 53007
KGON 230456Z AUTO 00000KT 10SM CLR 03/M01 A3040 RMK AO2 SLP292 T00331011 401610006
KGON 230356Z AUTO 00000KT 10SM CLR 05/M02 A3039 RMK AO2 SLP291 T00501017
KGON 230256Z AUTO 28005KT 10SM CLR 08/M01 A3038 RMK AO2 SLP288 T00831011 51016
KGON 230156Z 26004KT 10SM CLR 09/M02 A3038 RMK AO2 SLP288 T00891022
KGON 230056Z 24006KT 10SM CLR 08/01 A3037 RMK AO2 SLP282 T00830006
KGON 222356Z 24007KT 10SM CLR 10/M01 A3034 RMK AO2 SLP272 T01001006 10144 20089 53008
KGON 222256Z 25008KT 10SM CLR 11/00 A3032 RMK AO2 SLP266 T01060000
KGON 222156Z 24011KT 10SM CLR 12/00 A3030 RMK AO2 SLP261 T01220000
KGON 222056Z 23011G19KT 10SM CLR 13/M01 A3031 RMK AO2 SLP264 T01281006 55008
KGON 221956Z 24013G19KT 10SM CLR 14/M04 A3031 RMK AO2 SLP263 T01441039
KGON 221856Z 24015KT 10SM CLR 13/M03 A3032 RMK AO2 SLP267 T01331028
KGON 221756Z 23013G18KT 10SM CLR 13/M01 A3033 RMK AO2 SLP271 T01281011 10161 20089 58012
KGON 221656Z 31013G16KT 10SM CLR 16/M09 A3035 RMK AO2 SLP276 T01561094
KGON 221556Z VRB03KT 10SM CLR 13/01 A3036 RMK AO2 SLP281 T01330006
KGON 221456Z 32007G16KT 290V350 10SM CLR 14/M08 A3037 RMK AO2 SLP283 T01391083 58003
KGON 221356Z 31008KT 10SM CLR 13/M07 A3037 RMK AO2 SLP285 T01331067
KGON 221256Z 34007KT 10SM CLR 11/M07 A3038 RMK AO2 SLP286 T01111067
KGON 221156Z 34005KT 10SM CLR 09/M05 A3038 RMK AO2 SLP286 T00891050 10089 20006 53012
KGON 221056Z 00000KT 10SM CLR 02/M02 A3037 RMK AO2 SLP282 T00221017
KGON 220956Z AUTO 00000KT 10SM CLR 01/M04 A3035 RMK AO2 SLP277 T00111039
KGON 220856Z AUTO 00000KT 10SM CLR 03/M04 A3034 RMK AO2 SLP274 T00281044 51008
KGON 220756Z AUTO 36004KT 10SM CLR 04/M06 A3033 RMK AO2 SLP272 T00391056